sensor_id;sensor_type;location;lat;lon;timestamp;temperature;humidity
67942;SHT31;54731;42.600;23.476;2023-11-19T00:01:36;1.99;75.22
67942;SHT31;54731;42.600;23.476;2023-11-19T00:04:01;2.05;75.25
67942;SHT31;54731;42.600;23.476;2023-11-19T00:06:27;2.09;75.11
67942;SHT31;54731;42.600;23.476;2023-11-19T00:08:55;2.06;74.92
67942;SHT31;54731;42.600;23.476;2023-11-19T00:11:21;2.06;74.73
67942;SHT31;54731;42.600;23.476;2023-11-19T00:13:46;2.01;75.14
67942;SHT31;54731;42.600;23.476;2023-11-19T00:16:12;2.04;75.27
67942;SHT31;54731;42.600;23.476;2023-11-19T00:18:37;2.08;74.89
67942;SHT31;54731;42.600;23.476;2023-11-19T00:21:03;2.09;74.80
67942;SHT31;54731;42.600;23.476;2023-11-19T00:23:29;2.05;74.79
67942;SHT31;54731;42.600;23.476;2023-11-19T00:25:54;1.98;75.09
67942;SHT31;54731;42.600;23.476;2023-11-19T00:28:20;1.99;74.95
67942;SHT31;54731;42.600;23.476;2023-11-19T00:30:48;1.99;74.74
67942;SHT31;54731;42.600;23.476;2023-11-19T00:33:20;1.93;75.02
67942;SHT31;54731;42.600;23.476;2023-11-19T00:35:45;1.95;74.90
67942;SHT31;54731;42.600;23.476;2023-11-19T00:38:11;1.98;74.90
67942;SHT31;54731;42.600;23.476;2023-11-19T00:40:36;1.95;74.78
67942;SHT31;54731;42.600;23.476;2023-11-19T00:43:02;2.02;74.66
67942;SHT31;54731;42.600;23.476;2023-11-19T00:45:27;1.95;74.79
67942;SHT31;54731;42.600;23.476;2023-11-19T00:47:53;1.98;74.83
67942;SHT31;54731;42.600;23.476;2023-11-19T00:50:19;1.97;74.86
67942;SHT31;54731;42.600;23.476;2023-11-19T00:52:44;2.04;74.81
67942;SHT31;54731;42.600;23.476;2023-11-19T00:55:09;2.05;74.58
67942;SHT31;54731;42.600;23.476;2023-11-19T00:57:35;2.02;74.49
67942;SHT31;54731;42.600;23.476;2023-11-19T01:00:05;1.98;74.82
67942;SHT31;54731;42.600;23.476;2023-11-19T01:02:30;1.99;74.83
67942;SHT31;54731;42.600;23.476;2023-11-19T01:04:56;1.99;74.77
67942;SHT31;54731;42.600;23.476;2023-11-19T01:07:21;1.98;74.50
67942;SHT31;54731;42.600;23.476;2023-11-19T01:09:47;1.94;74.69
67942;SHT31;54731;42.600;23.476;2023-11-19T01:12:12;1.97;74.91
67942;SHT31;54731;42.600;23.476;2023-11-19T01:14:38;2.02;74.79
67942;SHT31;54731;42.600;23.476;2023-11-19T01:17:04;1.99;74.73
67942;SHT31;54731;42.600;23.476;2023-11-19T01:19:29;1.98;74.80
67942;SHT31;54731;42.600;23.476;2023-11-19T01:21:55;1.98;74.86
67942;SHT31;54731;42.600;23.476;2023-11-19T01:24:20;2.02;74.77
67942;SHT31;54731;42.600;23.476;2023-11-19T01:26:46;2.08;74.51
67942;SHT31;54731;42.600;23.476;2023-11-19T01:29:12;2.02;74.54
67942;SHT31;54731;42.600;23.476;2023-11-19T01:31:38;1.98;74.91
67942;SHT31;54731;42.600;23.476;2023-11-19T01:34:07;1.98;74.71
67942;SHT31;54731;42.600;23.476;2023-11-19T01:36:32;2.01;74.52
67942;SHT31;54731;42.600;23.476;2023-11-19T01:38:58;2.01;74.76
67942;SHT31;54731;42.600;23.476;2023-11-19T01:41:23;2.01;74.48
67942;SHT31;54731;42.600;23.476;2023-11-19T01:43:49;1.99;74.77
67942;SHT31;54731;42.600;23.476;2023-11-19T01:46:15;1.99;74.83
67942;SHT31;54731;42.600;23.476;2023-11-19T01:48:43;2.02;74.52
67942;SHT31;54731;42.600;23.476;2023-11-19T01:51:09;1.95;74.81
67942;SHT31;54731;42.600;23.476;2023-11-19T01:53:37;2.02;74.58
67942;SHT31;54731;42.600;23.476;2023-11-19T01:56:04;2.08;74.18
67942;SHT31;54731;42.600;23.476;2023-11-19T01:58:30;2.08;74.25
67942;SHT31;54731;42.600;23.476;2023-11-19T02:00:56;1.95;74.42
67942;SHT31;54731;42.600;23.476;2023-11-19T02:03:25;1.98;74.09
67942;SHT31;54731;42.600;23.476;2023-11-19T02:05:51;1.97;73.82
67942;SHT31;54731;42.600;23.476;2023-11-19T02:08:17;1.98;73.77
67942;SHT31;54731;42.600;23.476;2023-11-19T02:10:45;1.98;73.90
67942;SHT31;54731;42.600;23.476;2023-11-19T02:13:11;1.95;73.66
67942;SHT31;54731;42.600;23.476;2023-11-19T02:15:37;1.98;73.39
67942;SHT31;54731;42.600;23.476;2023-11-19T02:18:22;1.95;73.23
67942;SHT31;54731;42.600;23.476;2023-11-19T02:20:50;1.98;73.06
67942;SHT31;54731;42.600;23.476;2023-11-19T02:23:17;1.99;73.03
67942;SHT31;54731;42.600;23.476;2023-11-19T02:25:47;1.99;72.79
67942;SHT31;54731;42.600;23.476;2023-11-19T02:28:13;1.95;73.11
67942;SHT31;54731;42.600;23.476;2023-11-19T02:30:38;1.89;73.02
67942;SHT31;54731;42.600;23.476;2023-11-19T02:33:04;1.86;73.45
67942;SHT31;54731;42.600;23.476;2023-11-19T02:35:29;1.91;73.19
67942;SHT31;54731;42.600;23.476;2023-11-19T02:37:55;1.95;72.52
67942;SHT31;54731;42.600;23.476;2023-11-19T02:40:20;1.94;72.91
67942;SHT31;54731;42.600;23.476;2023-11-19T02:42:46;1.93;73.14
67942;SHT31;54731;42.600;23.476;2023-11-19T02:45:12;1.94;72.80
67942;SHT31;54731;42.600;23.476;2023-11-19T02:47:37;1.93;72.60
67942;SHT31;54731;42.600;23.476;2023-11-19T02:50:03;1.93;72.83
67942;SHT31;54731;42.600;23.476;2023-11-19T02:52:29;1.89;72.48
67942;SHT31;54731;42.600;23.476;2023-11-19T02:55:00;1.84;72.81
67942;SHT31;54731;42.600;23.476;2023-11-19T02:57:31;1.82;72.89
67942;SHT31;54731;42.600;23.476;2023-11-19T02:59:56;1.82;72.83
67942;SHT31;54731;42.600;23.476;2023-11-19T03:02:22;1.81;72.95
67942;SHT31;54731;42.600;23.476;2023-11-19T03:04:47;1.79;73.22
67942;SHT31;54731;42.600;23.476;2023-11-19T03:07:13;1.79;73.08
67942;SHT31;54731;42.600;23.476;2023-11-19T03:09:38;1.71;73.43
67942;SHT31;54731;42.600;23.476;2023-11-19T03:12:04;1.74;73.30
67942;SHT31;54731;42.600;23.476;2023-11-19T03:14:30;1.71;73.36
67942;SHT31;54731;42.600;23.476;2023-11-19T03:16:56;1.70;73.53
67942;SHT31;54731;42.600;23.476;2023-11-19T03:19:21;1.60;73.40
67942;SHT31;54731;42.600;23.476;2023-11-19T03:21:50;1.65;73.47
67942;SHT31;54731;42.600;23.476;2023-11-19T03:24:15;1.61;73.37
67942;SHT31;54731;42.600;23.476;2023-11-19T03:26:41;1.60;73.32
67942;SHT31;54731;42.600;23.476;2023-11-19T03:29:06;1.55;73.67
67942;SHT31;54731;42.600;23.476;2023-11-19T03:31:32;1.48;73.94
67942;SHT31;54731;42.600;23.476;2023-11-19T03:34:02;1.51;73.85
67942;SHT31;54731;42.600;23.476;2023-11-19T03:36:34;1.51;73.82
67942;SHT31;54731;42.600;23.476;2023-11-19T03:39:00;1.51;73.57
67942;SHT31;54731;42.600;23.476;2023-11-19T03:41:29;1.53;73.50
67942;SHT31;54731;42.600;23.476;2023-11-19T03:43:54;1.51;73.77
67942;SHT31;54731;42.600;23.476;2023-11-19T03:46:20;1.54;73.68
67942;SHT31;54731;42.600;23.476;2023-11-19T03:48:55;1.54;73.61
67942;SHT31;54731;42.600;23.476;2023-11-19T03:51:20;1.51;73.87
67942;SHT31;54731;42.600;23.476;2023-11-19T03:53:46;1.54;73.80
67942;SHT31;54731;42.600;23.476;2023-11-19T03:56:12;1.55;73.74
67942;SHT31;54731;42.600;23.476;2023-11-19T03:58:38;1.64;73.59
67942;SHT31;54731;42.600;23.476;2023-11-19T04:01:05;1.64;73.47
67942;SHT31;54731;42.600;23.476;2023-11-19T04:03:31;1.60;73.69
67942;SHT31;54731;42.600;23.476;2023-11-19T04:05:56;1.67;73.55
67942;SHT31;54731;42.600;23.476;2023-11-19T04:08:22;1.63;73.61
67942;SHT31;54731;42.600;23.476;2023-11-19T04:10:48;1.65;73.40
67942;SHT31;54731;42.600;23.476;2023-11-19T04:13:14;1.67;73.29
67942;SHT31;54731;42.600;23.476;2023-11-19T04:15:39;1.63;73.53
67942;SHT31;54731;42.600;23.476;2023-11-19T04:18:05;1.61;73.51
67942;SHT31;54731;42.600;23.476;2023-11-19T04:20:31;1.64;73.47
67942;SHT31;54731;42.600;23.476;2023-11-19T04:22:56;1.63;73.33
67942;SHT31;54731;42.600;23.476;2023-11-19T04:25:22;1.65;73.53
67942;SHT31;54731;42.600;23.476;2023-11-19T04:27:47;1.67;73.58
67942;SHT31;54731;42.600;23.476;2023-11-19T04:30:13;1.64;73.44
67942;SHT31;54731;42.600;23.476;2023-11-19T04:32:39;1.58;73.69
67942;SHT31;54731;42.600;23.476;2023-11-19T04:35:04;1.57;73.62
67942;SHT31;54731;42.600;23.476;2023-11-19T04:37:30;1.65;73.70
67942;SHT31;54731;42.600;23.476;2023-11-19T04:39:55;1.64;73.68
67942;SHT31;54731;42.600;23.476;2023-11-19T04:42:22;1.64;73.68
67942;SHT31;54731;42.600;23.476;2023-11-19T04:44:48;1.68;73.70
67942;SHT31;54731;42.600;23.476;2023-11-19T04:47:14;1.71;73.51
67942;SHT31;54731;42.600;23.476;2023-11-19T04:49:42;1.64;73.71
67942;SHT31;54731;42.600;23.476;2023-11-19T04:52:08;1.67;73.58
67942;SHT31;54731;42.600;23.476;2023-11-19T04:54:33;1.65;73.81
67942;SHT31;54731;42.600;23.476;2023-11-19T04:56:59;1.68;73.31
67942;SHT31;54731;42.600;23.476;2023-11-19T04:59:25;1.70;73.34
67942;SHT31;54731;42.600;23.476;2023-11-19T05:01:50;1.71;73.05
67942;SHT31;54731;42.600;23.476;2023-11-19T05:04:16;1.67;72.65
67942;SHT31;54731;42.600;23.476;2023-11-19T05:06:42;1.64;72.86
67942;SHT31;54731;42.600;23.476;2023-11-19T05:09:07;1.63;73.17
67942;SHT31;54731;42.600;23.476;2023-11-19T05:11:33;1.58;72.83
67942;SHT31;54731;42.600;23.476;2023-11-19T05:14:02;1.58;73.06
67942;SHT31;54731;42.600;23.476;2023-11-19T05:16:28;1.57;72.73
67942;SHT31;54731;42.600;23.476;2023-11-19T05:18:57;1.60;72.78
67942;SHT31;54731;42.600;23.476;2023-11-19T05:21:22;1.63;72.95
67942;SHT31;54731;42.600;23.476;2023-11-19T05:23:48;1.60;72.55
67942;SHT31;54731;42.600;23.476;2023-11-19T05:26:20;1.61;72.65
67942;SHT31;54731;42.600;23.476;2023-11-19T05:28:46;1.57;72.56
67942;SHT31;54731;42.600;23.476;2023-11-19T05:31:15;1.55;72.70
67942;SHT31;54731;42.600;23.476;2023-11-19T05:33:41;1.54;72.62
67942;SHT31;54731;42.600;23.476;2023-11-19T05:36:07;1.55;72.63
67942;SHT31;54731;42.600;23.476;2023-11-19T05:38:33;1.53;72.44
67942;SHT31;54731;42.600;23.476;2023-11-19T05:40:58;1.54;72.72
67942;SHT31;54731;42.600;23.476;2023-11-19T05:43:24;1.55;72.71
67942;SHT31;54731;42.600;23.476;2023-11-19T05:45:49;1.60;72.20
67942;SHT31;54731;42.600;23.476;2023-11-19T05:48:15;1.60;72.38
67942;SHT31;54731;42.600;23.476;2023-11-19T05:50:41;1.63;72.52
67942;SHT31;54731;42.600;23.476;2023-11-19T05:53:06;1.67;72.20
67942;SHT31;54731;42.600;23.476;2023-11-19T05:55:34;1.63;72.05
67942;SHT31;54731;42.600;23.476;2023-11-19T05:58:02;1.63;72.47
67942;SHT31;54731;42.600;23.476;2023-11-19T06:00:31;1.61;72.10
67942;SHT31;54731;42.600;23.476;2023-11-19T06:02:56;1.63;72.25
67942;SHT31;54731;42.600;23.476;2023-11-19T06:05:21;1.61;72.08
67942;SHT31;54731;42.600;23.476;2023-11-19T06:07:47;1.65;72.30
67942;SHT31;54731;42.600;23.476;2023-11-19T06:10:12;1.60;72.70
67942;SHT31;54731;42.600;23.476;2023-11-19T06:12:38;1.57;72.37
67942;SHT31;54731;42.600;23.476;2023-11-19T06:15:08;1.57;72.70
67942;SHT31;54731;42.600;23.476;2023-11-19T06:17:34;1.60;72.63
67942;SHT31;54731;42.600;23.476;2023-11-19T06:19:59;1.63;72.53
67942;SHT31;54731;42.600;23.476;2023-11-19T06:22:25;1.58;72.76
67942;SHT31;54731;42.600;23.476;2023-11-19T06:24:50;1.58;72.91
67942;SHT31;54731;42.600;23.476;2023-11-19T06:27:16;1.60;73.00
67942;SHT31;54731;42.600;23.476;2023-11-19T06:29:42;1.68;72.47
67942;SHT31;54731;42.600;23.476;2023-11-19T06:32:07;1.64;72.93
67942;SHT31;54731;42.600;23.476;2023-11-19T06:34:33;1.65;72.73
67942;SHT31;54731;42.600;23.476;2023-11-19T06:36:59;1.71;73.99
67942;SHT31;54731;42.600;23.476;2023-11-19T06:39:25;1.67;72.58
67942;SHT31;54731;42.600;23.476;2023-11-19T06:41:50;1.57;72.74
67942;SHT31;54731;42.600;23.476;2023-11-19T06:44:16;1.61;72.68
67942;SHT31;54731;42.600;23.476;2023-11-19T06:46:41;1.65;73.50
67942;SHT31;54731;42.600;23.476;2023-11-19T06:49:07;1.73;72.81
67942;SHT31;54731;42.600;23.476;2023-11-19T06:51:33;1.68;72.52
67942;SHT31;54731;42.600;23.476;2023-11-19T06:53:59;1.65;73.12
67942;SHT31;54731;42.600;23.476;2023-11-19T06:56:27;1.74;72.95
67942;SHT31;54731;42.600;23.476;2023-11-19T06:58:53;1.73;72.28
67942;SHT31;54731;42.600;23.476;2023-11-19T07:01:19;1.60;72.84
67942;SHT31;54731;42.600;23.476;2023-11-19T07:03:45;1.68;73.10
67942;SHT31;54731;42.600;23.476;2023-11-19T07:06:11;1.67;72.59
67942;SHT31;54731;42.600;23.476;2023-11-19T07:08:36;1.68;72.58
67942;SHT31;54731;42.600;23.476;2023-11-19T07:11:05;1.75;72.10
67942;SHT31;54731;42.600;23.476;2023-11-19T07:13:30;1.68;71.95
67942;SHT31;54731;42.600;23.476;2023-11-19T07:15:56;1.68;72.12
67942;SHT31;54731;42.600;23.476;2023-11-19T07:18:22;1.73;72.02
67942;SHT31;54731;42.600;23.476;2023-11-19T07:20:48;1.65;71.98
67942;SHT31;54731;42.600;23.476;2023-11-19T07:23:13;1.68;72.51
67942;SHT31;54731;42.600;23.476;2023-11-19T07:25:39;1.77;71.77
67942;SHT31;54731;42.600;23.476;2023-11-19T07:28:04;1.78;71.69
67942;SHT31;54731;42.600;23.476;2023-11-19T07:30:33;1.77;71.86
67942;SHT31;54731;42.600;23.476;2023-11-19T07:32:58;1.81;71.46
67942;SHT31;54731;42.600;23.476;2023-11-19T07:35:24;1.78;71.28
67942;SHT31;54731;42.600;23.476;2023-11-19T07:37:49;1.77;71.25
67942;SHT31;54731;42.600;23.476;2023-11-19T07:40:15;1.63;71.66
67942;SHT31;54731;42.600;23.476;2023-11-19T07:42:40;1.67;71.60
67942;SHT31;54731;42.600;23.476;2023-11-19T07:45:06;1.67;71.81
67942;SHT31;54731;42.600;23.476;2023-11-19T07:47:33;1.71;71.72
67942;SHT31;54731;42.600;23.476;2023-11-19T07:49:59;1.74;71.16
67942;SHT31;54731;42.600;23.476;2023-11-19T07:52:24;1.73;71.20
67942;SHT31;54731;42.600;23.476;2023-11-19T07:54:50;1.73;71.18
67942;SHT31;54731;42.600;23.476;2023-11-19T07:57:16;1.75;71.22
67942;SHT31;54731;42.600;23.476;2023-11-19T07:59:41;1.77;70.87
67942;SHT31;54731;42.600;23.476;2023-11-19T08:02:07;1.85;70.67
67942;SHT31;54731;42.600;23.476;2023-11-19T08:04:32;1.77;70.86
67942;SHT31;54731;42.600;23.476;2023-11-19T08:06:58;1.78;71.38
67942;SHT31;54731;42.600;23.476;2023-11-19T08:09:24;1.84;71.33
67942;SHT31;54731;42.600;23.476;2023-11-19T08:11:49;1.79;70.68
67942;SHT31;54731;42.600;23.476;2023-11-19T08:14:18;1.81;70.32
67942;SHT31;54731;42.600;23.476;2023-11-19T08:16:46;1.82;70.35
67942;SHT31;54731;42.600;23.476;2023-11-19T08:19:12;1.74;70.40
67942;SHT31;54731;42.600;23.476;2023-11-19T08:21:37;1.77;70.21
67942;SHT31;54731;42.600;23.476;2023-11-19T08:24:06;1.81;70.01
67942;SHT31;54731;42.600;23.476;2023-11-19T08:26:31;1.74;70.64
67942;SHT31;54731;42.600;23.476;2023-11-19T08:28:57;1.77;70.27
67942;SHT31;54731;42.600;23.476;2023-11-19T08:31:24;1.86;70.63
67942;SHT31;54731;42.600;23.476;2023-11-19T08:33:49;1.89;69.69
67942;SHT31;54731;42.600;23.476;2023-11-19T08:36:15;1.89;69.74
67942;SHT31;54731;42.600;23.476;2023-11-19T08:38:41;1.93;69.70
67942;SHT31;54731;42.600;23.476;2023-11-19T08:41:07;1.84;69.61
67942;SHT31;54731;42.600;23.476;2023-11-19T08:43:32;1.84;70.04
67942;SHT31;54731;42.600;23.476;2023-11-19T08:45:58;1.95;69.70
67942;SHT31;54731;42.600;23.476;2023-11-19T08:48:23;1.93;69.79
67942;SHT31;54731;42.600;23.476;2023-11-19T08:50:49;1.95;69.77
67942;SHT31;54731;42.600;23.476;2023-11-19T08:53:14;2.01;69.82
67942;SHT31;54731;42.600;23.476;2023-11-19T08:55:40;2.04;69.54
67942;SHT31;54731;42.600;23.476;2023-11-19T08:58:05;2.09;69.85
67942;SHT31;54731;42.600;23.476;2023-11-19T09:00:31;2.15;69.69
67942;SHT31;54731;42.600;23.476;2023-11-19T09:02:56;2.19;69.35
67942;SHT31;54731;42.600;23.476;2023-11-19T09:05:24;2.19;69.13
67942;SHT31;54731;42.600;23.476;2023-11-19T09:07:50;2.19;68.62
67942;SHT31;54731;42.600;23.476;2023-11-19T09:10:15;2.18;68.67
67942;SHT31;54731;42.600;23.476;2023-11-19T09:12:41;2.26;68.67
67942;SHT31;54731;42.600;23.476;2023-11-19T09:15:06;2.42;68.40
67942;SHT31;54731;42.600;23.476;2023-11-19T09:17:34;2.46;67.68
67942;SHT31;54731;42.600;23.476;2023-11-19T09:20:03;2.43;67.52
67942;SHT31;54731;42.600;23.476;2023-11-19T09:22:29;2.35;67.16
67942;SHT31;54731;42.600;23.476;2023-11-19T09:24:54;2.30;67.48
67942;SHT31;54731;42.600;23.476;2023-11-19T09:27:19;2.28;67.50
67942;SHT31;54731;42.600;23.476;2023-11-19T09:29:45;2.33;67.45
67942;SHT31;54731;42.600;23.476;2023-11-19T09:32:10;2.32;67.74
67942;SHT31;54731;42.600;23.476;2023-11-19T09:34:36;2.35;67.65
67942;SHT31;54731;42.600;23.476;2023-11-19T09:37:02;2.35;67.60
67942;SHT31;54731;42.600;23.476;2023-11-19T09:39:30;2.43;67.77
67942;SHT31;54731;42.600;23.476;2023-11-19T09:41:55;2.54;67.99
67942;SHT31;54731;42.600;23.476;2023-11-19T09:44:21;2.45;67.56
67942;SHT31;54731;42.600;23.476;2023-11-19T09:46:47;2.40;67.97
67942;SHT31;54731;42.600;23.476;2023-11-19T09:49:13;2.45;67.99
67942;SHT31;54731;42.600;23.476;2023-11-19T09:51:38;2.45;67.82
67942;SHT31;54731;42.600;23.476;2023-11-19T09:54:04;2.39;67.67
67942;SHT31;54731;42.600;23.476;2023-11-19T09:56:30;2.39;67.59
67942;SHT31;54731;42.600;23.476;2023-11-19T09:58:59;2.43;67.79
67942;SHT31;54731;42.600;23.476;2023-11-19T10:01:24;2.42;67.29
67942;SHT31;54731;42.600;23.476;2023-11-19T10:03:51;2.48;67.28
67942;SHT31;54731;42.600;23.476;2023-11-19T10:06:17;2.46;67.73
67942;SHT31;54731;42.600;23.476;2023-11-19T10:08:46;2.46;67.38
67942;SHT31;54731;42.600;23.476;2023-11-19T10:11:12;2.49;67.95
67942;SHT31;54731;42.600;23.476;2023-11-19T10:13:37;2.56;67.88
67942;SHT31;54731;42.600;23.476;2023-11-19T10:16:12;2.70;68.35
67942;SHT31;54731;42.600;23.476;2023-11-19T10:18:44;2.81;68.35
67942;SHT31;54731;42.600;23.476;2023-11-19T10:21:12;2.90;66.96
67942;SHT31;54731;42.600;23.476;2023-11-19T10:23:51;2.79;67.34
67942;SHT31;54731;42.600;23.476;2023-11-19T10:26:18;2.77;66.48
67942;SHT31;54731;42.600;23.476;2023-11-19T10:28:46;2.70;66.52
67942;SHT31;54731;42.600;23.476;2023-11-19T10:31:18;2.83;66.88
67942;SHT31;54731;42.600;23.476;2023-11-19T10:33:44;2.94;66.57
67942;SHT31;54731;42.600;23.476;2023-11-19T10:36:11;3.03;66.33
67942;SHT31;54731;42.600;23.476;2023-11-19T10:38:40;3.13;66.46
67942;SHT31;54731;42.600;23.476;2023-11-19T10:41:26;3.15;65.99
67942;SHT31;54731;42.600;23.476;2023-11-19T10:43:52;3.25;65.49
67942;SHT31;54731;42.600;23.476;2023-11-19T10:46:17;3.14;65.44
67942;SHT31;54731;42.600;23.476;2023-11-19T10:48:43;3.23;65.45
67942;SHT31;54731;42.600;23.476;2023-11-19T10:51:09;3.46;65.21
67942;SHT31;54731;42.600;23.476;2023-11-19T10:53:39;3.72;65.06
67942;SHT31;54731;42.600;23.476;2023-11-19T10:56:10;3.82;63.90
67942;SHT31;54731;42.600;23.476;2023-11-19T10:58:36;4.03;63.67
67942;SHT31;54731;42.600;23.476;2023-11-19T11:01:02;4.10;63.15
67942;SHT31;54731;42.600;23.476;2023-11-19T11:03:35;4.14;62.24
67942;SHT31;54731;42.600;23.476;2023-11-19T11:06:03;4.32;62.50
67942;SHT31;54731;42.600;23.476;2023-11-19T11:08:30;4.54;61.42
67942;SHT31;54731;42.600;23.476;2023-11-19T11:10:56;4.68;60.47
67942;SHT31;54731;42.600;23.476;2023-11-19T11:13:25;4.82;60.13
67942;SHT31;54731;42.600;23.476;2023-11-19T11:15:51;4.91;59.84
67942;SHT31;54731;42.600;23.476;2023-11-19T11:18:17;4.88;59.39
67942;SHT31;54731;42.600;23.476;2023-11-19T11:20:44;4.80;59.61
67942;SHT31;54731;42.600;23.476;2023-11-19T11:26:49;4.96;59.24
67942;SHT31;54731;42.600;23.476;2023-11-19T11:29:46;5.22;58.38
67942;SHT31;54731;42.600;23.476;2023-11-19T11:32:43;5.39;58.75
67942;SHT31;54731;42.600;23.476;2023-11-19T11:38:06;5.91;57.98
67942;SHT31;54731;42.600;23.476;2023-11-19T11:40:32;6.01;57.17
67942;SHT31;54731;42.600;23.476;2023-11-19T11:43:01;6.30;56.96
67942;SHT31;54731;42.600;23.476;2023-11-19T11:45:40;6.28;55.40
67942;SHT31;54731;42.600;23.476;2023-11-19T11:48:06;6.21;54.82
67942;SHT31;54731;42.600;23.476;2023-11-19T11:50:35;6.27;55.69
67942;SHT31;54731;42.600;23.476;2023-11-19T11:55:36;6.61;54.47
67942;SHT31;54731;42.600;23.476;2023-11-19T11:58:02;6.69;53.77
67942;SHT31;54731;42.600;23.476;2023-11-19T12:00:29;6.61;54.06
67942;SHT31;54731;42.600;23.476;2023-11-19T12:03:02;6.88;54.76
67942;SHT31;54731;42.600;23.476;2023-11-19T12:05:28;7.17;52.98
67942;SHT31;54731;42.600;23.476;2023-11-19T12:08:02;7.07;52.73
67942;SHT31;54731;42.600;23.476;2023-11-19T12:10:37;7.06;52.65
67942;SHT31;54731;42.600;23.476;2023-11-19T12:13:06;6.65;53.92
67942;SHT31;54731;42.600;23.476;2023-11-19T12:15:32;6.96;54.09
67942;SHT31;54731;42.600;23.476;2023-11-19T12:18:06;7.13;52.11
67942;SHT31;54731;42.600;23.476;2023-11-19T12:20:33;7.16;52.43
67942;SHT31;54731;42.600;23.476;2023-11-19T12:23:04;6.89;53.17
67942;SHT31;54731;42.600;23.476;2023-11-19T12:25:34;6.65;54.44
67942;SHT31;54731;42.600;23.476;2023-11-19T12:28:00;6.88;54.96
67942;SHT31;54731;42.600;23.476;2023-11-19T12:30:26;6.81;54.69
67942;SHT31;54731;42.600;23.476;2023-11-19T12:32:52;6.85;54.47
67942;SHT31;54731;42.600;23.476;2023-11-19T12:35:17;6.78;54.18
67942;SHT31;54731;42.600;23.476;2023-11-19T12:42:51;6.68;54.81
67942;SHT31;54731;42.600;23.476;2023-11-19T12:45:17;6.55;54.67
67942;SHT31;54731;42.600;23.476;2023-11-19T12:47:43;6.67;55.17
67942;SHT31;54731;42.600;23.476;2023-11-19T12:50:09;6.30;54.85
67942;SHT31;54731;42.600;23.476;2023-11-19T12:52:38;6.18;56.50
67942;SHT31;54731;42.600;23.476;2023-11-19T12:55:04;6.44;55.00
67942;SHT31;54731;42.600;23.476;2023-11-19T12:57:42;6.53;55.04
67942;SHT31;54731;42.600;23.476;2023-11-19T13:00:18;6.65;54.97
67942;SHT31;54731;42.600;23.476;2023-11-19T13:02:45;6.73;54.35
67942;SHT31;54731;42.600;23.476;2023-11-19T13:05:43;6.21;55.11
67942;SHT31;54731;42.600;23.476;2023-11-19T13:08:09;6.20;55.81
67942;SHT31;54731;42.600;23.476;2023-11-19T13:10:51;6.35;55.49
67942;SHT31;54731;42.600;23.476;2023-11-19T13:13:17;6.17;55.41
67942;SHT31;54731;42.600;23.476;2023-11-19T13:15:42;6.24;56.18
67942;SHT31;54731;42.600;23.476;2023-11-19T13:18:08;6.22;56.44
67942;SHT31;54731;42.600;23.476;2023-11-19T13:20:33;6.08;56.98
67942;SHT31;54731;42.600;23.476;2023-11-19T13:23:00;5.87;57.19
67942;SHT31;54731;42.600;23.476;2023-11-19T13:25:29;5.87;57.37
67942;SHT31;54731;42.600;23.476;2023-11-19T13:27:55;5.86;57.70
67942;SHT31;54731;42.600;23.476;2023-11-19T13:30:21;5.85;58.35
67942;SHT31;54731;42.600;23.476;2023-11-19T13:32:46;5.79;59.30
67942;SHT31;54731;42.600;23.476;2023-11-19T13:35:15;5.69;59.61
67942;SHT31;54731;42.600;23.476;2023-11-19T13:37:41;5.66;59.64
67942;SHT31;54731;42.600;23.476;2023-11-19T13:40:07;5.70;60.20
67942;SHT31;54731;42.600;23.476;2023-11-19T13:42:32;5.70;59.78
67942;SHT31;54731;42.600;23.476;2023-11-19T13:44:58;5.80;58.81
67942;SHT31;54731;42.600;23.476;2023-11-19T13:47:23;5.69;58.99
67942;SHT31;54731;42.600;23.476;2023-11-19T13:49:48;5.71;59.34
67942;SHT31;54731;42.600;23.476;2023-11-19T13:52:13;5.67;59.69
67942;SHT31;54731;42.600;23.476;2023-11-19T13:54:39;5.60;60.43
67942;SHT31;54731;42.600;23.476;2023-11-19T13:57:04;5.62;60.05
67942;SHT31;54731;42.600;23.476;2023-11-19T13:59:30;5.52;60.06
67942;SHT31;54731;42.600;23.476;2023-11-19T14:01:56;5.47;60.53
67942;SHT31;54731;42.600;23.476;2023-11-19T14:04:21;5.45;60.41
67942;SHT31;54731;42.600;23.476;2023-11-19T14:06:46;5.52;60.35
67942;SHT31;54731;42.600;23.476;2023-11-19T14:09:12;5.42;60.17
67942;SHT31;54731;42.600;23.476;2023-11-19T14:11:37;5.38;60.56
67942;SHT31;54731;42.600;23.476;2023-11-19T14:14:02;5.35;60.83
67942;SHT31;54731;42.600;23.476;2023-11-19T14:16:28;5.35;61.25
67942;SHT31;54731;42.600;23.476;2023-11-19T14:18:53;5.36;61.61
67942;SHT31;54731;42.600;23.476;2023-11-19T14:21:18;5.28;61.24
67942;SHT31;54731;42.600;23.476;2023-11-19T14:23:44;5.25;61.79
67942;SHT31;54731;42.600;23.476;2023-11-19T14:26:09;5.24;62.09
67942;SHT31;54731;42.600;23.476;2023-11-19T14:28:34;5.21;61.91
67942;SHT31;54731;42.600;23.476;2023-11-19T14:31:00;5.09;62.31
67942;SHT31;54731;42.600;23.476;2023-11-19T14:33:25;4.98;63.40
67942;SHT31;54731;42.600;23.476;2023-11-19T14:35:50;4.78;64.26
67942;SHT31;54731;42.600;23.476;2023-11-19T14:38:15;4.74;63.84
67942;SHT31;54731;42.600;23.476;2023-11-19T14:40:41;4.64;63.98
67942;SHT31;54731;42.600;23.476;2023-11-19T14:43:06;4.57;64.05
67942;SHT31;54731;42.600;23.476;2023-11-19T14:45:31;4.54;63.80
67942;SHT31;54731;42.600;23.476;2023-11-19T14:47:57;4.41;63.93
67942;SHT31;54731;42.600;23.476;2023-11-19T14:50:22;4.20;64.40
67942;SHT31;54731;42.600;23.476;2023-11-19T14:52:47;4.17;64.67
67942;SHT31;54731;42.600;23.476;2023-11-19T14:55:13;4.11;65.05
67942;SHT31;54731;42.600;23.476;2023-11-19T14:57:38;4.06;65.25
67942;SHT31;54731;42.600;23.476;2023-11-19T15:00:05;3.78;65.85
67942;SHT31;54731;42.600;23.476;2023-11-19T15:02:30;3.65;66.40
67942;SHT31;54731;42.600;23.476;2023-11-19T15:04:55;3.66;66.55
67942;SHT31;54731;42.600;23.476;2023-11-19T15:07:22;3.50;66.83
67942;SHT31;54731;42.600;23.476;2023-11-19T15:09:47;3.44;66.98
67942;SHT31;54731;42.600;23.476;2023-11-19T15:12:13;3.44;66.88
67942;SHT31;54731;42.600;23.476;2023-11-19T15:14:39;3.28;67.60
67942;SHT31;54731;42.600;23.476;2023-11-19T15:17:04;3.11;68.16
67942;SHT31;54731;42.600;23.476;2023-11-19T15:19:30;3.00;68.52
67942;SHT31;54731;42.600;23.476;2023-11-19T15:21:55;2.97;68.91
67942;SHT31;54731;42.600;23.476;2023-11-19T15:24:20;2.99;68.58
67942;SHT31;54731;42.600;23.476;2023-11-19T15:26:46;2.90;68.84
67942;SHT31;54731;42.600;23.476;2023-11-19T15:29:11;2.90;68.78
67942;SHT31;54731;42.600;23.476;2023-11-19T15:31:36;2.84;68.91
67942;SHT31;54731;42.600;23.476;2023-11-19T15:34:01;2.77;69.14
67942;SHT31;54731;42.600;23.476;2023-11-19T15:36:27;2.80;69.11
67942;SHT31;54731;42.600;23.476;2023-11-19T15:38:52;2.73;69.50
67942;SHT31;54731;42.600;23.476;2023-11-19T15:41:17;2.76;69.27